Search for airport 
image banner adimage banner adimage banner ad
image banner ad

CCH2 - Upper Kent

Located in , Canada

ICAO - , IATA -

Data provided by Airmate  

General information

Coordinates: N46°35'15" W67°43'9"
Elevation is 246 feet MSL.
Magnetic variation is -18° East
View others Airports in New Brunswick

Operational data

Special qualification required
Current time UTC:
Current local time:
METAR: KPQI 221556Z AUTO 18007KT 10SM BKN010 OVC014 14/14 A2970 RMK AO2 RAE15 CIG 007V012 SLP081 P0000 T01440139
TAF: KPQI 221125Z 2212/2312 13008KT 6SM -DZ VCSH OVC005 FM221400 16009KT 3SM -SHRA OVC007 FM221700 22010KT 5SM -SHRA OVC015 FM222100 25009KT P6SM BKN025 FM230500 32004KT P6SM SCT025 OVC040
View NOTAMs / SUP AIP / TFR affecting this airport [VIEW]
Communications frequencies: [VIEW]

Runways:

RWY identifierQFULength (ft)Width (ft)SurfaceLDA (ft)
01140070GRASS
19140070GRASS

Airport contact information

Address: Canada

Satellite view of CCH2